sensor_id;sensor_type;location;lat;lon;timestamp;temperature;humidity
78366;HTU21D;67641;59.864;30.464;2024-02-21T00:01:57;13.82;74.99
78366;HTU21D;67641;59.864;30.464;2024-02-21T00:04:24;13.80;75.02
78366;HTU21D;67641;59.864;30.464;2024-02-21T00:06:50;13.80;74.86
78366;HTU21D;67641;59.864;30.464;2024-02-21T00:09:17;13.80;74.94
78366;HTU21D;67641;59.864;30.464;2024-02-21T00:11:45;13.81;74.89
78366;HTU21D;67641;59.864;30.464;2024-02-21T00:14:11;13.79;74.96
78366;HTU21D;67641;59.864;30.464;2024-02-21T00:16:38;13.75;75.21
78366;HTU21D;67641;59.864;30.464;2024-02-21T00:19:04;13.70;75.50
78366;HTU21D;67641;59.864;30.464;2024-02-21T00:21:31;13.69;75.59
78366;HTU21D;67641;59.864;30.464;2024-02-21T00:23:57;13.67;75.81
78366;HTU21D;67641;59.864;30.464;2024-02-21T00:26:23;13.64;75.73
78366;HTU21D;67641;59.864;30.464;2024-02-21T00:28:51;13.62;75.77
78366;HTU21D;67641;59.864;30.464;2024-02-21T00:31:18;13.56;75.97
78366;HTU21D;67641;59.864;30.464;2024-02-21T00:33:44;13.55;75.99
78366;HTU21D;67641;59.864;30.464;2024-02-21T00:36:11;13.55;76.01
78366;HTU21D;67641;59.864;30.464;2024-02-21T00:38:37;13.56;75.95
78366;HTU21D;67641;59.864;30.464;2024-02-21T00:41:03;13.54;75.99
78366;HTU21D;67641;59.864;30.464;2024-02-21T00:43:30;13.55;76.10
78366;HTU21D;67641;59.864;30.464;2024-02-21T00:45:57;13.54;75.99
78366;HTU21D;67641;59.864;30.464;2024-02-21T00:48:23;13.54;76.37
78366;HTU21D;67641;59.864;30.464;2024-02-21T00:50:49;13.49;76.17
78366;HTU21D;67641;59.864;30.464;2024-02-21T00:53:16;13.48;76.41
78366;HTU21D;67641;59.864;30.464;2024-02-21T00:55:42;13.47;76.46
78366;HTU21D;67641;59.864;30.464;2024-02-21T00:58:09;13.46;76.14
78366;HTU21D;67641;59.864;30.464;2024-02-21T01:00:36;13.41;76.20
78366;HTU21D;67641;59.864;30.464;2024-02-21T01:03:02;13.40;76.34
78366;HTU21D;67641;59.864;30.464;2024-02-21T01:05:29;13.38;76.36
78366;HTU21D;67641;59.864;30.464;2024-02-21T01:07:55;13.37;76.25
78366;HTU21D;67641;59.864;30.464;2024-02-21T01:10:23;13.37;76.44
78366;HTU21D;67641;59.864;30.464;2024-02-21T01:12:49;13.38;76.45
78366;HTU21D;67641;59.864;30.464;2024-02-21T01:15:16;13.38;76.44
78366;HTU21D;67641;59.864;30.464;2024-02-21T01:17:42;13.36;76.35
78366;HTU21D;67641;59.864;30.464;2024-02-21T01:20:09;13.37;76.57
78366;HTU21D;67641;59.864;30.464;2024-02-21T01:22:35;13.35;76.45
78366;HTU21D;67641;59.864;30.464;2024-02-21T01:25:02;13.33;76.92
78366;HTU21D;67641;59.864;30.464;2024-02-21T01:27:28;13.33;77.19
78366;HTU21D;67641;59.864;30.464;2024-02-21T01:29:55;13.33;77.03
78366;HTU21D;67641;59.864;30.464;2024-02-21T01:32:22;13.32;77.05
78366;HTU21D;67641;59.864;30.464;2024-02-21T01:34:51;13.32;77.21
78366;HTU21D;67641;59.864;30.464;2024-02-21T01:37:17;13.31;77.13
78366;HTU21D;67641;59.864;30.464;2024-02-21T01:39:44;13.31;77.24
78366;HTU21D;67641;59.864;30.464;2024-02-21T01:42:10;13.31;77.15
78366;HTU21D;67641;59.864;30.464;2024-02-21T01:44:36;13.26;77.09
78366;HTU21D;67641;59.864;30.464;2024-02-21T01:47:04;13.20;77.19
78366;HTU21D;67641;59.864;30.464;2024-02-21T01:49:30;13.18;77.20
78366;HTU21D;67641;59.864;30.464;2024-02-21T01:51:57;13.16;77.47
78366;HTU21D;67641;59.864;30.464;2024-02-21T01:54:25;13.11;77.72
78366;HTU21D;67641;59.864;30.464;2024-02-21T01:56:54;13.11;77.79
78366;HTU21D;67641;59.864;30.464;2024-02-21T01:59:21;13.11;77.49
78366;HTU21D;67641;59.864;30.464;2024-02-21T02:01:50;13.10;77.61
78366;HTU21D;67641;59.864;30.464;2024-02-21T02:04:16;13.07;77.74
78366;HTU21D;67641;59.864;30.464;2024-02-21T02:06:43;13.07;77.96
78366;HTU21D;67641;59.864;30.464;2024-02-21T02:09:10;13.06;77.58
78366;HTU21D;67641;59.864;30.464;2024-02-21T02:11:36;13.01;77.78
78366;HTU21D;67641;59.864;30.464;2024-02-21T02:14:03;12.97;77.79
78366;HTU21D;67641;59.864;30.464;2024-02-21T02:16:29;12.93;77.90
78366;HTU21D;67641;59.864;30.464;2024-02-21T02:18:56;12.93;77.79
78366;HTU21D;67641;59.864;30.464;2024-02-21T02:21:36;12.93;77.75
78366;HTU21D;67641;59.864;30.464;2024-02-21T02:24:05;12.91;77.73
78366;HTU21D;67641;59.864;30.464;2024-02-21T02:26:31;12.91;77.75
78366;HTU21D;67641;59.864;30.464;2024-02-21T02:28:58;12.90;77.89
78366;HTU21D;67641;59.864;30.464;2024-02-21T02:31:24;12.90;78.11
78366;HTU21D;67641;59.864;30.464;2024-02-21T02:33:51;12.89;77.99
78366;HTU21D;67641;59.864;30.464;2024-02-21T02:36:17;12.89;78.23
78366;HTU21D;67641;59.864;30.464;2024-02-21T02:38:44;12.87;78.19
78366;HTU21D;67641;59.864;30.464;2024-02-21T02:41:11;12.84;78.31
78366;HTU21D;67641;59.864;30.464;2024-02-21T02:43:37;12.81;78.22
78366;HTU21D;67641;59.864;30.464;2024-02-21T02:46:04;12.80;78.31
78366;HTU21D;67641;59.864;30.464;2024-02-21T02:48:30;12.79;78.30
78366;HTU21D;67641;59.864;30.464;2024-02-21T02:50:56;12.78;78.21
78366;HTU21D;67641;59.864;30.464;2024-02-21T02:53:23;12.78;78.14
78366;HTU21D;67641;59.864;30.464;2024-02-21T02:55:49;12.75;78.24
78366;HTU21D;67641;59.864;30.464;2024-02-21T02:58:16;12.72;78.24
78366;HTU21D;67641;59.864;30.464;2024-02-21T03:00:42;12.74;78.27
78366;HTU21D;67641;59.864;30.464;2024-02-21T03:03:09;12.73;78.20
78366;HTU21D;67641;59.864;30.464;2024-02-21T03:05:35;12.73;78.22
78366;HTU21D;67641;59.864;30.464;2024-02-21T03:08:02;12.73;78.09
78366;HTU21D;67641;59.864;30.464;2024-02-21T03:10:33;12.72;78.24
78366;HTU21D;67641;59.864;30.464;2024-02-21T03:12:59;12.72;78.23
78366;HTU21D;67641;59.864;30.464;2024-02-21T03:15:26;12.71;78.25
78366;HTU21D;67641;59.864;30.464;2024-02-21T03:17:52;12.71;78.36
78366;HTU21D;67641;59.864;30.464;2024-02-21T03:20:19;12.69;78.56
78366;HTU21D;67641;59.864;30.464;2024-02-21T03:22:45;12.66;78.61
78366;HTU21D;67641;59.864;30.464;2024-02-21T03:25:12;12.65;78.74
78366;HTU21D;67641;59.864;30.464;2024-02-21T03:27:40;12.65;78.94
78366;HTU21D;67641;59.864;30.464;2024-02-21T03:30:07;12.64;78.92
78366;HTU21D;67641;59.864;30.464;2024-02-21T03:32:33;12.61;78.73
78366;HTU21D;67641;59.864;30.464;2024-02-21T03:35:00;12.59;78.75
78366;HTU21D;67641;59.864;30.464;2024-02-21T03:37:26;12.58;78.79
78366;HTU21D;67641;59.864;30.464;2024-02-21T03:39:53;12.60;78.79
78366;HTU21D;67641;59.864;30.464;2024-02-21T03:42:19;12.56;78.68
78366;HTU21D;67641;59.864;30.464;2024-02-21T03:44:46;12.55;78.66
78366;HTU21D;67641;59.864;30.464;2024-02-21T03:47:12;12.51;78.69
78366;HTU21D;67641;59.864;30.464;2024-02-21T03:49:38;12.48;78.92
78366;HTU21D;67641;59.864;30.464;2024-02-21T03:52:05;12.46;79.24
78366;HTU21D;67641;59.864;30.464;2024-02-21T03:54:32;12.46;79.14
78366;HTU21D;67641;59.864;30.464;2024-02-21T03:56:58;12.45;79.52
78366;HTU21D;67641;59.864;30.464;2024-02-21T03:59:24;12.44;79.44
78366;HTU21D;67641;59.864;30.464;2024-02-21T04:01:52;12.46;79.27
78366;HTU21D;67641;59.864;30.464;2024-02-21T04:04:18;12.45;79.30
78366;HTU21D;67641;59.864;30.464;2024-02-21T04:06:49;12.45;79.37
78366;HTU21D;67641;59.864;30.464;2024-02-21T04:09:16;12.45;79.46
78366;HTU21D;67641;59.864;30.464;2024-02-21T04:11:42;12.44;79.67
78366;HTU21D;67641;59.864;30.464;2024-02-21T04:14:09;12.46;79.53
78366;HTU21D;67641;59.864;30.464;2024-02-21T04:16:37;12.46;79.60
78366;HTU21D;67641;59.864;30.464;2024-02-21T04:19:04;12.45;79.55
78366;HTU21D;67641;59.864;30.464;2024-02-21T04:21:31;12.44;79.62
78366;HTU21D;67641;59.864;30.464;2024-02-21T04:23:57;12.45;79.33
78366;HTU21D;67641;59.864;30.464;2024-02-21T04:26:24;12.42;79.18
78366;HTU21D;67641;59.864;30.464;2024-02-21T04:28:50;12.45;79.28
78366;HTU21D;67641;59.864;30.464;2024-02-21T04:31:17;12.44;79.09
78366;HTU21D;67641;59.864;30.464;2024-02-21T04:33:43;12.46;79.40
78366;HTU21D;67641;59.864;30.464;2024-02-21T04:36:09;12.47;79.43
78366;HTU21D;67641;59.864;30.464;2024-02-21T04:38:36;12.51;79.32
78366;HTU21D;67641;59.864;30.464;2024-02-21T04:41:02;12.50;79.24
78366;HTU21D;67641;59.864;30.464;2024-02-21T04:43:29;12.55;78.74
78366;HTU21D;67641;59.864;30.464;2024-02-21T04:45:55;12.56;78.52
78366;HTU21D;67641;59.864;30.464;2024-02-21T04:48:22;12.62;78.27
78366;HTU21D;67641;59.864;30.464;2024-02-21T04:50:48;12.67;78.33
78366;HTU21D;67641;59.864;30.464;2024-02-21T04:53:16;12.78;78.13
78366;HTU21D;67641;59.864;30.464;2024-02-21T04:55:43;12.91;78.02
78366;HTU21D;67641;59.864;30.464;2024-02-21T04:58:10;13.05;77.56
78366;HTU21D;67641;59.864;30.464;2024-02-21T05:00:36;13.31;76.24
78366;HTU21D;67641;59.864;30.464;2024-02-21T05:03:02;13.76;74.72
78366;HTU21D;67641;59.864;30.464;2024-02-21T05:05:29;14.23;72.94
78366;HTU21D;67641;59.864;30.464;2024-02-21T05:07:55;14.70;70.93
78366;HTU21D;67641;59.864;30.464;2024-02-21T05:10:22;15.13;69.05
78366;HTU21D;67641;59.864;30.464;2024-02-21T05:12:49;15.59;67.52
78366;HTU21D;67641;59.864;30.464;2024-02-21T05:15:16;16.13;65.46
78366;HTU21D;67641;59.864;30.464;2024-02-21T05:17:42;16.63;64.05
78366;HTU21D;67641;59.864;30.464;2024-02-21T05:20:09;17.17;61.73
78366;HTU21D;67641;59.864;30.464;2024-02-21T05:22:36;17.65;60.31
78366;HTU21D;67641;59.864;30.464;2024-02-21T05:25:03;18.18;58.55
78366;HTU21D;67641;59.864;30.464;2024-02-21T05:27:29;18.79;56.93
78366;HTU21D;67641;59.864;30.464;2024-02-21T05:29:55;19.36;55.39
78366;HTU21D;67641;59.864;30.464;2024-02-21T05:32:22;19.81;53.12
78366;HTU21D;67641;59.864;30.464;2024-02-21T05:34:49;20.29;52.39
78366;HTU21D;67641;59.864;30.464;2024-02-21T05:37:16;20.83;51.37
78366;HTU21D;67641;59.864;30.464;2024-02-21T05:39:42;21.38;49.65
78366;HTU21D;67641;59.864;30.464;2024-02-21T05:42:08;21.77;47.30
78366;HTU21D;67641;59.864;30.464;2024-02-21T05:44:35;22.16;46.89
78366;HTU21D;67641;59.864;30.464;2024-02-21T05:47:01;22.63;45.75
78366;HTU21D;67641;59.864;30.464;2024-02-21T05:49:28;23.03;44.35
78366;HTU21D;67641;59.864;30.464;2024-02-21T05:51:54;23.38;44.06
78366;HTU21D;67641;59.864;30.464;2024-02-21T05:54:21;23.81;42.80
78366;HTU21D;67641;59.864;30.464;2024-02-21T05:56:47;24.24;42.02
78366;HTU21D;67641;59.864;30.464;2024-02-21T05:59:13;24.55;39.81
78366;HTU21D;67641;59.864;30.464;2024-02-21T06:01:40;24.97;39.13
78366;HTU21D;67641;59.864;30.464;2024-02-21T06:04:06;25.42;38.04
78366;HTU21D;67641;59.864;30.464;2024-02-21T06:06:33;25.63;36.91
78366;HTU21D;67641;59.864;30.464;2024-02-21T06:09:00;26.02;36.44
78366;HTU21D;67641;59.864;30.464;2024-02-21T06:11:28;26.49;36.02
78366;HTU21D;67641;59.864;30.464;2024-02-21T06:13:55;26.95;34.84
78366;HTU21D;67641;59.864;30.464;2024-02-21T06:16:21;27.37;33.85
78366;HTU21D;67641;59.864;30.464;2024-02-21T06:18:48;27.70;33.05
78366;HTU21D;67641;59.864;30.464;2024-02-21T06:21:14;28.00;32.49
78366;HTU21D;67641;59.864;30.464;2024-02-21T06:23:42;28.15;31.56
78366;HTU21D;67641;59.864;30.464;2024-02-21T06:26:09;28.27;31.35
78366;HTU21D;67641;59.864;30.464;2024-02-21T06:28:35;27.71;32.16
78366;HTU21D;67641;59.864;30.464;2024-02-21T06:31:02;27.29;32.73
78366;HTU21D;67641;59.864;30.464;2024-02-21T06:33:29;27.47;32.48
78366;HTU21D;67641;59.864;30.464;2024-02-21T06:35:55;27.80;32.18
78366;HTU21D;67641;59.864;30.464;2024-02-21T06:38:21;28.02;32.29
78366;HTU21D;67641;59.864;30.464;2024-02-21T06:40:48;28.11;32.15
78366;HTU21D;67641;59.864;30.464;2024-02-21T06:43:18;28.61;31.29
78366;HTU21D;67641;59.864;30.464;2024-02-21T06:45:46;28.62;30.72
78366;HTU21D;67641;59.864;30.464;2024-02-21T06:48:17;28.95;30.81
78366;HTU21D;67641;59.864;30.464;2024-02-21T06:50:45;29.43;29.20
78366;HTU21D;67641;59.864;30.464;2024-02-21T06:53:11;29.68;28.89
78366;HTU21D;67641;59.864;30.464;2024-02-21T06:55:38;29.74;28.73
78366;HTU21D;67641;59.864;30.464;2024-02-21T06:58:04;29.82;28.19
78366;HTU21D;67641;59.864;30.464;2024-02-21T07:00:30;30.12;28.39
78366;HTU21D;67641;59.864;30.464;2024-02-21T07:02:57;29.65;28.97
78366;HTU21D;67641;59.864;30.464;2024-02-21T07:05:24;30.04;28.46
78366;HTU21D;67641;59.864;30.464;2024-02-21T07:07:50;30.09;27.97
78366;HTU21D;67641;59.864;30.464;2024-02-21T07:10:17;29.88;27.62
78366;HTU21D;67641;59.864;30.464;2024-02-21T07:12:43;29.91;28.17
78366;HTU21D;67641;59.864;30.464;2024-02-21T07:15:10;29.56;29.22
78366;HTU21D;67641;59.864;30.464;2024-02-21T07:17:36;29.22;29.21
78366;HTU21D;67641;59.864;30.464;2024-02-21T07:20:03;29.17;29.68
78366;HTU21D;67641;59.864;30.464;2024-02-21T07:22:30;29.01;30.68
78366;HTU21D;67641;59.864;30.464;2024-02-21T07:24:56;28.83;29.63
78366;HTU21D;67641;59.864;30.464;2024-02-21T07:27:23;28.46;31.27
78366;HTU21D;67641;59.864;30.464;2024-02-21T07:29:49;27.83;31.99
78366;HTU21D;67641;59.864;30.464;2024-02-21T07:32:15;27.12;33.67
78366;HTU21D;67641;59.864;30.464;2024-02-21T07:34:42;27.54;33.96
78366;HTU21D;67641;59.864;30.464;2024-02-21T07:37:09;27.88;33.03
78366;HTU21D;67641;59.864;30.464;2024-02-21T07:39:38;27.90;32.58
78366;HTU21D;67641;59.864;30.464;2024-02-21T07:42:05;27.54;32.78
78366;HTU21D;67641;59.864;30.464;2024-02-21T07:44:32;27.38;32.83
78366;HTU21D;67641;59.864;30.464;2024-02-21T07:46:58;26.81;34.71
78366;HTU21D;67641;59.864;30.464;2024-02-21T07:49:25;26.65;36.35
78366;HTU21D;67641;59.864;30.464;2024-02-21T07:51:51;25.91;37.16
78366;HTU21D;67641;59.864;30.464;2024-02-21T07:54:18;26.19;35.20
78366;HTU21D;67641;59.864;30.464;2024-02-21T07:56:45;26.16;35.87
78366;HTU21D;67641;59.864;30.464;2024-02-21T07:59:11;27.13;34.36
78366;HTU21D;67641;59.864;30.464;2024-02-21T08:01:40;27.74;32.73
78366;HTU21D;67641;59.864;30.464;2024-02-21T08:04:06;26.93;33.24
78366;HTU21D;67641;59.864;30.464;2024-02-21T08:06:33;26.53;34.37
78366;HTU21D;67641;59.864;30.464;2024-02-21T08:08:59;26.79;34.50
78366;HTU21D;67641;59.864;30.464;2024-02-21T08:11:27;26.45;35.05
78366;HTU21D;67641;59.864;30.464;2024-02-21T08:13:53;26.78;34.55
78366;HTU21D;67641;59.864;30.464;2024-02-21T08:16:19;26.58;34.85
78366;HTU21D;67641;59.864;30.464;2024-02-21T08:18:46;26.23;35.18
78366;HTU21D;67641;59.864;30.464;2024-02-21T08:21:12;26.05;35.23
78366;HTU21D;67641;59.864;30.464;2024-02-21T08:23:39;26.10;35.71
78366;HTU21D;67641;59.864;30.464;2024-02-21T08:26:06;25.43;37.52
78366;HTU21D;67641;59.864;30.464;2024-02-21T08:28:33;25.38;36.57
78366;HTU21D;67641;59.864;30.464;2024-02-21T08:30:59;25.48;37.30
78366;HTU21D;67641;59.864;30.464;2024-02-21T08:33:26;25.34;37.12
78366;HTU21D;67641;59.864;30.464;2024-02-21T08:35:53;25.31;37.30
78366;HTU21D;67641;59.864;30.464;2024-02-21T08:38:20;25.42;37.17
78366;HTU21D;67641;59.864;30.464;2024-02-21T08:40:46;25.12;36.30
78366;HTU21D;67641;59.864;30.464;2024-02-21T08:43:13;24.94;38.06
78366;HTU21D;67641;59.864;30.464;2024-02-21T08:45:39;25.48;37.54
78366;HTU21D;67641;59.864;30.464;2024-02-21T08:48:06;25.56;36.11
78366;HTU21D;67641;59.864;30.464;2024-02-21T08:50:32;25.06;38.37
78366;HTU21D;67641;59.864;30.464;2024-02-21T08:52:59;25.78;36.00
78366;HTU21D;67641;59.864;30.464;2024-02-21T08:55:25;25.64;37.02
78366;HTU21D;67641;59.864;30.464;2024-02-21T08:57:52;25.15;38.08
78366;HTU21D;67641;59.864;30.464;2024-02-21T09:00:18;24.90;37.06
78366;HTU21D;67641;59.864;30.464;2024-02-21T09:02:49;24.54;38.15
78366;HTU21D;67641;59.864;30.464;2024-02-21T09:05:16;24.76;37.74
78366;HTU21D;67641;59.864;30.464;2024-02-21T09:07:42;24.55;38.92
78366;HTU21D;67641;59.864;30.464;2024-02-21T09:10:09;24.94;38.20
78366;HTU21D;67641;59.864;30.464;2024-02-21T09:12:36;25.24;36.07
78366;HTU21D;67641;59.864;30.464;2024-02-21T09:15:02;25.86;35.60
78366;HTU21D;67641;59.864;30.464;2024-02-21T09:17:29;26.41;33.67
78366;HTU21D;67641;59.864;30.464;2024-02-21T09:19:56;26.77;32.41
78366;HTU21D;67641;59.864;30.464;2024-02-21T09:22:25;26.93;32.59
78366;HTU21D;67641;59.864;30.464;2024-02-21T09:24:51;27.15;33.62
78366;HTU21D;67641;59.864;30.464;2024-02-21T09:27:17;26.76;34.47
78366;HTU21D;67641;59.864;30.464;2024-02-21T09:29:44;26.80;33.96
78366;HTU21D;67641;59.864;30.464;2024-02-21T09:32:10;27.29;32.51
78366;HTU21D;67641;59.864;30.464;2024-02-21T09:34:37;27.31;32.65
78366;HTU21D;67641;59.864;30.464;2024-02-21T09:37:03;26.99;33.15
78366;HTU21D;67641;59.864;30.464;2024-02-21T09:39:30;27.02;32.83
78366;HTU21D;67641;59.864;30.464;2024-02-21T09:41:59;27.15;32.85
78366;HTU21D;67641;59.864;30.464;2024-02-21T09:44:36;27.28;33.02
78366;HTU21D;67641;59.864;30.464;2024-02-21T09:47:24;27.75;31.95
78366;HTU21D;67641;59.864;30.464;2024-02-21T09:49:55;27.54;31.43
78366;HTU21D;67641;59.864;30.464;2024-02-21T09:52:23;27.67;32.53
78366;HTU21D;67641;59.864;30.464;2024-02-21T09:54:50;27.58;31.90
78366;HTU21D;67641;59.864;30.464;2024-02-21T09:57:19;27.84;30.91
78366;HTU21D;67641;59.864;30.464;2024-02-21T09:59:46;27.67;32.48
78366;HTU21D;67641;59.864;30.464;2024-02-21T10:02:12;28.37;30.78
78366;HTU21D;67641;59.864;30.464;2024-02-21T10:04:42;27.66;32.02
78366;HTU21D;67641;59.864;30.464;2024-02-21T10:07:09;27.11;33.15
78366;HTU21D;67641;59.864;30.464;2024-02-21T10:09:35;27.13;32.63
78366;HTU21D;67641;59.864;30.464;2024-02-21T10:12:12;27.54;31.89
78366;HTU21D;67641;59.864;30.464;2024-02-21T10:14:38;27.19;33.20
78366;HTU21D;67641;59.864;30.464;2024-02-21T10:17:05;26.83;33.89
78366;HTU21D;67641;59.864;30.464;2024-02-21T10:19:35;27.10;33.98
78366;HTU21D;67641;59.864;30.464;2024-02-21T10:22:08;27.82;32.93
78366;HTU21D;67641;59.864;30.464;2024-02-21T10:24:35;27.91;31.74
78366;HTU21D;67641;59.864;30.464;2024-02-21T10:27:06;26.26;35.46
78366;HTU21D;67641;59.864;30.464;2024-02-21T10:29:37;25.43;36.50
78366;HTU21D;67641;59.864;30.464;2024-02-21T10:32:12;24.61;38.93
78366;HTU21D;67641;59.864;30.464;2024-02-21T10:34:40;24.46;39.85
78366;HTU21D;67641;59.864;30.464;2024-02-21T10:37:09;24.36;40.17
78366;HTU21D;67641;59.864;30.464;2024-02-21T10:39:41;24.34;40.08
78366;HTU21D;67641;59.864;30.464;2024-02-21T10:42:11;24.41;39.33
78366;HTU21D;67641;59.864;30.464;2024-02-21T10:44:39;24.92;38.32
78366;HTU21D;67641;59.864;30.464;2024-02-21T10:47:10;25.16;38.38
78366;HTU21D;67641;59.864;30.464;2024-02-21T10:49:40;25.58;36.87
78366;HTU21D;67641;59.864;30.464;2024-02-21T10:55:10;26.61;34.78
78366;HTU21D;67641;59.864;30.464;2024-02-21T10:57:38;26.76;35.04
78366;HTU21D;67641;59.864;30.464;2024-02-21T11:00:06;27.22;33.83
78366;HTU21D;67641;59.864;30.464;2024-02-21T11:02:39;27.61;33.21
78366;HTU21D;67641;59.864;30.464;2024-02-21T11:05:06;27.80;32.99
78366;HTU21D;67641;59.864;30.464;2024-02-21T11:07:36;28.31;31.80
78366;HTU21D;67641;59.864;30.464;2024-02-21T11:10:03;28.00;30.90
78366;HTU21D;67641;59.864;30.464;2024-02-21T11:12:32;27.82;32.58
78366;HTU21D;67641;59.864;30.464;2024-02-21T11:15:06;27.35;33.96
78366;HTU21D;67641;59.864;30.464;2024-02-21T11:17:32;27.82;34.23
78366;HTU21D;67641;59.864;30.464;2024-02-21T11:20:09;28.27;32.73
78366;HTU21D;67641;59.864;30.464;2024-02-21T11:22:43;28.62;32.01
78366;HTU21D;67641;59.864;30.464;2024-02-21T11:25:10;28.52;31.29
78366;HTU21D;67641;59.864;30.464;2024-02-21T11:27:45;29.36;29.35
78366;HTU21D;67641;59.864;30.464;2024-02-21T11:30:12;28.83;30.26
78366;HTU21D;67641;59.864;30.464;2024-02-21T11:32:40;28.99;30.38
78366;HTU21D;67641;59.864;30.464;2024-02-21T11:35:07;29.14;28.64
78366;HTU21D;67641;59.864;30.464;2024-02-21T11:37:35;29.47;28.44
78366;HTU21D;67641;59.864;30.464;2024-02-21T11:40:05;28.53;30.40
78366;HTU21D;67641;59.864;30.464;2024-02-21T11:42:36;28.89;30.10
78366;HTU21D;67641;59.864;30.464;2024-02-21T11:45:02;28.05;33.02
78366;HTU21D;67641;59.864;30.464;2024-02-21T11:47:29;27.67;33.67
78366;HTU21D;67641;59.864;30.464;2024-02-21T11:49:56;27.02;34.77
78366;HTU21D;67641;59.864;30.464;2024-02-21T11:52:23;26.77;35.22
78366;HTU21D;67641;59.864;30.464;2024-02-21T11:54:55;26.66;34.94
78366;HTU21D;67641;59.864;30.464;2024-02-21T11:57:30;27.00;35.32
78366;HTU21D;67641;59.864;30.464;2024-02-21T11:59:56;27.60;35.53
78366;HTU21D;67641;59.864;30.464;2024-02-21T12:02:23;27.95;34.68
78366;HTU21D;67641;59.864;30.464;2024-02-21T12:04:49;28.00;34.07
78366;HTU21D;67641;59.864;30.464;2024-02-21T12:07:17;28.02;34.11
78366;HTU21D;67641;59.864;30.464;2024-02-21T12:09:44;27.72;35.31
78366;HTU21D;67641;59.864;30.464;2024-02-21T12:12:10;27.11;36.45
78366;HTU21D;67641;59.864;30.464;2024-02-21T12:14:37;26.85;36.75
78366;HTU21D;67641;59.864;30.464;2024-02-21T12:17:04;26.41;38.64
78366;HTU21D;67641;59.864;30.464;2024-02-21T12:19:31;26.77;37.17
78366;HTU21D;67641;59.864;30.464;2024-02-21T12:22:02;26.89;37.05
78366;HTU21D;67641;59.864;30.464;2024-02-21T12:24:31;26.80;37.59
78366;HTU21D;67641;59.864;30.464;2024-02-21T12:26:58;26.31;37.70
78366;HTU21D;67641;59.864;30.464;2024-02-21T12:29:24;26.25;37.96
78366;HTU21D;67641;59.864;30.464;2024-02-21T12:31:52;25.87;39.12
78366;HTU21D;67641;59.864;30.464;2024-02-21T12:34:20;26.01;38.72
78366;HTU21D;67641;59.864;30.464;2024-02-21T12:36:48;26.09;38.59
78366;HTU21D;67641;59.864;30.464;2024-02-21T12:39:14;26.33;37.80
78366;HTU21D;67641;59.864;30.464;2024-02-21T12:41:42;26.69;36.77
78366;HTU21D;67641;59.864;30.464;2024-02-21T12:44:10;27.58;35.27
78366;HTU21D;67641;59.864;30.464;2024-02-21T12:46:40;27.00;36.56
78366;HTU21D;67641;59.864;30.464;2024-02-21T12:49:06;26.78;36.39
78366;HTU21D;67641;59.864;30.464;2024-02-21T12:51:36;26.64;37.11
78366;HTU21D;67641;59.864;30.464;2024-02-21T12:54:04;26.33;38.76
78366;HTU21D;67641;59.864;30.464;2024-02-21T12:56:30;25.68;39.65
78366;HTU21D;67641;59.864;30.464;2024-02-21T12:58:57;25.28;41.51
78366;HTU21D;67641;59.864;30.464;2024-02-21T13:01:24;24.39;43.27
78366;HTU21D;67641;59.864;30.464;2024-02-21T13:03:54;23.34;45.75
78366;HTU21D;67641;59.864;30.464;2024-02-21T13:06:22;22.69;47.45
78366;HTU21D;67641;59.864;30.464;2024-02-21T13:08:48;22.40;47.40
78366;HTU21D;67641;59.864;30.464;2024-02-21T13:11:15;23.15;44.71
78366;HTU21D;67641;59.864;30.464;2024-02-21T13:13:42;23.29;45.19
78366;HTU21D;67641;59.864;30.464;2024-02-21T13:16:08;24.01;43.22
78366;HTU21D;67641;59.864;30.464;2024-02-21T13:18:36;24.95;40.71
78366;HTU21D;67641;59.864;30.464;2024-02-21T13:21:06;25.48;39.03
78366;HTU21D;67641;59.864;30.464;2024-02-21T13:23:33;24.77;39.49
78366;HTU21D;67641;59.864;30.464;2024-02-21T13:25:59;24.17;40.62
78366;HTU21D;67641;59.864;30.464;2024-02-21T13:28:26;23.71;41.45
78366;HTU21D;67641;59.864;30.464;2024-02-21T13:30:52;23.29;43.42
78366;HTU21D;67641;59.864;30.464;2024-02-21T13:33:19;23.80;42.41
78366;HTU21D;67641;59.864;30.464;2024-02-21T13:35:45;23.31;43.03
78366;HTU21D;67641;59.864;30.464;2024-02-21T13:38:12;24.12;42.21
78366;HTU21D;67641;59.864;30.464;2024-02-21T13:40:39;24.35;41.20
78366;HTU21D;67641;59.864;30.464;2024-02-21T13:43:08;24.80;40.07
78366;HTU21D;67641;59.864;30.464;2024-02-21T13:45:34;24.95;39.61
78366;HTU21D;67641;59.864;30.464;2024-02-21T13:48:01;25.07;39.12
78366;HTU21D;67641;59.864;30.464;2024-02-21T13:50:30;25.50;37.85
78366;HTU21D;67641;59.864;30.464;2024-02-21T13:52:57;26.28;36.79
78366;HTU21D;67641;59.864;30.464;2024-02-21T13:55:24;25.98;36.71
78366;HTU21D;67641;59.864;30.464;2024-02-21T13:57:53;25.91;37.06
78366;HTU21D;67641;59.864;30.464;2024-02-21T14:00:19;26.70;35.95
78366;HTU21D;67641;59.864;30.464;2024-02-21T14:02:46;27.41;34.62
78366;HTU21D;67641;59.864;30.464;2024-02-21T14:05:13;26.93;35.13
78366;HTU21D;67641;59.864;30.464;2024-02-21T14:07:40;26.48;35.81
78366;HTU21D;67641;59.864;30.464;2024-02-21T14:10:07;26.60;34.95
78366;HTU21D;67641;59.864;30.464;2024-02-21T14:12:35;26.70;34.80
78366;HTU21D;67641;59.864;30.464;2024-02-21T14:15:02;26.47;36.03
78366;HTU21D;67641;59.864;30.464;2024-02-21T14:17:28;25.53;38.43
78366;HTU21D;67641;59.864;30.464;2024-02-21T14:19:55;24.98;38.91
78366;HTU21D;67641;59.864;30.464;2024-02-21T14:22:21;24.19;39.97
78366;HTU21D;67641;59.864;30.464;2024-02-21T14:24:48;23.56;42.19
78366;HTU21D;67641;59.864;30.464;2024-02-21T14:27:14;23.22;44.03
78366;HTU21D;67641;59.864;30.464;2024-02-21T14:29:40;23.10;45.34
78366;HTU21D;67641;59.864;30.464;2024-02-21T14:32:07;22.43;47.02
78366;HTU21D;67641;59.864;30.464;2024-02-21T14:34:36;21.73;49.02
78366;HTU21D;67641;59.864;30.464;2024-02-21T14:37:02;21.36;49.92
78366;HTU21D;67641;59.864;30.464;2024-02-21T14:39:30;21.01;50.07
78366;HTU21D;67641;59.864;30.464;2024-02-21T14:41:56;21.35;47.97
78366;HTU21D;67641;59.864;30.464;2024-02-21T14:44:23;21.83;46.54
78366;HTU21D;67641;59.864;30.464;2024-02-21T14:46:49;22.08;45.95
78366;HTU21D;67641;59.864;30.464;2024-02-21T14:49:15;22.58;44.58
78366;HTU21D;67641;59.864;30.464;2024-02-21T14:51:42;22.39;44.51
78366;HTU21D;67641;59.864;30.464;2024-02-21T14:54:08;22.03;45.35
78366;HTU21D;67641;59.864;30.464;2024-02-21T14:56:35;21.47;46.89
78366;HTU21D;67641;59.864;30.464;2024-02-21T14:59:02;21.46;47.55
78366;HTU21D;67641;59.864;30.464;2024-02-21T15:01:30;21.49;46.78
78366;HTU21D;67641;59.864;30.464;2024-02-21T15:03:58;21.04;47.88
78366;HTU21D;67641;59.864;30.464;2024-02-21T15:06:24;20.68;49.27